createdAt,value
2019-01-20T00:02:50.244Z,29.90
2019-01-20T00:07:55.374Z,32.93
2019-01-20T00:13:00.564Z,29.90
2019-01-20T00:18:05.641Z,30.90
2019-01-20T00:23:10.926Z,28.50
2019-01-20T00:28:16.222Z,33.50
2019-01-20T00:33:21.573Z,30.80
2019-01-20T00:38:27.999Z,32.20
2019-01-20T00:43:33.026Z,33.83
2019-01-20T00:48:38.298Z,32.77
2019-01-20T00:53:44.212Z,44.20
2019-01-20T00:58:49.162Z,37.80
2019-01-20T01:03:54.543Z,38.13
2019-01-20T01:08:59.762Z,34.27
2019-01-20T01:14:04.991Z,31.80
2019-01-20T01:19:10.251Z,35.13
2019-01-20T01:24:15.108Z,39.33
2019-01-20T01:29:20.270Z,35.30
2019-01-20T01:34:25.178Z,39.33
2019-01-20T01:39:30.242Z,40.90
2019-01-20T01:44:35.094Z,44.33
2019-01-20T01:49:39.880Z,37.40
2019-01-20T01:54:45.903Z,36.60
2019-01-20T01:59:50.746Z,35.40
2019-01-20T02:04:55.442Z,41.90
2019-01-20T02:10:00.298Z,42.20
2019-01-20T02:15:06.516Z,39.63
2019-01-20T02:20:13.078Z,39.50
2019-01-20T02:25:17.770Z,36.90
2019-01-20T02:30:29.574Z,36.23
2019-01-20T02:35:33.583Z,38.37
2019-01-20T02:40:37.751Z,39.90
2019-01-20T02:45:41.702Z,33.57
2019-01-20T02:50:45.574Z,34.77
2019-01-20T02:55:49.892Z,38.70
2019-01-20T03:00:54.030Z,42.13
2019-01-20T03:05:58.068Z,39.50
2019-01-20T03:11:02.154Z,35.43
2019-01-20T03:16:06.244Z,38.07
2019-01-20T03:21:10.130Z,45.67
2019-01-20T03:26:14.188Z,36.37
2019-01-20T03:31:18.183Z,42.10
2019-01-20T03:36:22.109Z,37.83
2019-01-20T03:41:26.114Z,42.87
2019-01-20T03:46:30.207Z,42.93
2019-01-20T03:51:34.361Z,39.90
2019-01-20T03:56:38.562Z,40.40
2019-01-20T04:01:42.392Z,35.07
2019-01-20T04:06:46.345Z,38.63
2019-01-20T04:11:50.435Z,37.03
2019-01-20T04:16:54.625Z,37.90
2019-01-20T04:21:58.781Z,37.53
2019-01-20T04:27:02.922Z,34.70
2019-01-20T04:32:07.035Z,39.87
2019-01-20T04:37:10.532Z,43.00
2019-01-20T04:42:15.650Z,38.03
2019-01-20T04:47:21.035Z,38.07
2019-01-20T04:52:25.672Z,32.00
2019-01-20T04:57:31.886Z,35.70
2019-01-20T05:02:36.614Z,36.00
2019-01-20T05:07:41.330Z,38.40
2019-01-20T05:12:46.162Z,38.40
2019-01-20T05:17:51.177Z,37.97
2019-01-20T05:22:55.867Z,36.93
2019-01-20T05:28:00.863Z,37.63
2019-01-20T05:33:05.844Z,42.43
2019-01-20T05:38:10.548Z,37.53
2019-01-20T05:43:15.442Z,40.17
2019-01-20T05:48:20.168Z,40.20
2019-01-20T05:53:25.175Z,36.50
2019-01-20T05:58:30.810Z,38.90
2019-01-20T06:03:35.643Z,45.30
2019-01-20T06:08:40.753Z,56.20
2019-01-20T06:13:45.786Z,54.00
2019-01-20T06:18:50.943Z,62.77
2019-01-20T06:23:55.979Z,57.93
2019-01-20T06:29:00.774Z,62.00
2019-01-20T06:34:05.500Z,59.83
2019-01-20T06:39:10.403Z,60.40
2019-01-20T06:44:15.511Z,53.30
2019-01-20T06:49:20.532Z,61.27
2019-01-20T06:54:25.348Z,38.83
2019-01-20T06:59:31.301Z,34.40
2019-01-20T07:04:36.168Z,35.83
2019-01-20T07:09:40.997Z,34.43
2019-01-20T07:14:46.092Z,36.70
2019-01-20T07:19:51.103Z,37.37
2019-01-20T07:24:55.925Z,40.27
2019-01-20T07:30:01.067Z,39.17
2019-01-20T07:35:07.078Z,38.17
2019-01-20T07:40:13.320Z,41.70
2019-01-20T07:45:18.082Z,43.17
2019-01-20T07:50:27.018Z,47.33
2019-01-20T07:55:31.108Z,44.00
2019-01-20T08:00:35.556Z,36.87
2019-01-20T08:05:39.737Z,40.40
2019-01-20T08:10:44.090Z,42.33
2019-01-20T08:15:48.533Z,40.93
2019-01-20T08:20:52.627Z,39.60
2019-01-20T08:25:57.335Z,36.13
2019-01-20T08:31:01.782Z,46.70
2019-01-20T08:36:06.199Z,45.43
2019-01-20T08:41:10.510Z,52.33
2019-01-20T08:46:50.077Z,50.67
2019-01-20T08:51:54.702Z,47.23
2019-01-20T08:57:00.988Z,49.77
2019-01-20T09:02:05.413Z,49.47
2019-01-20T09:07:10.444Z,51.83
2019-01-20T09:12:15.436Z,56.10
2019-01-20T09:17:20.455Z,55.50
2019-01-20T09:22:25.856Z,54.70
2019-01-20T09:27:30.638Z,52.07
2019-01-20T09:32:36.238Z,51.33
2019-01-20T09:37:41.744Z,51.27
2019-01-20T09:42:46.901Z,53.20
2019-01-20T09:47:52.199Z,57.80
2019-01-20T09:52:57.278Z,49.57
2019-01-20T09:58:02.894Z,54.10
2019-01-20T10:03:08.191Z,51.30
2019-01-20T10:08:13.614Z,55.67
2019-01-20T10:13:18.678Z,57.77
2019-01-20T10:18:24.082Z,59.00
2019-01-20T10:23:29.809Z,57.07
2019-01-20T10:28:35.340Z,64.37
2019-01-20T10:33:40.247Z,67.17
2019-01-20T10:38:45.593Z,60.00
2019-01-20T10:43:50.903Z,63.43
2019-01-20T10:48:56.345Z,61.83
2019-01-20T10:54:01.548Z,68.10
2019-01-20T10:59:07.180Z,64.40
2019-01-20T11:04:12.290Z,59.27
2019-01-20T11:09:17.122Z,64.53
2019-01-20T11:14:22.219Z,65.07
2019-01-20T11:19:27.313Z,62.83
2019-01-20T11:24:32.345Z,59.73
2019-01-20T11:29:37.839Z,55.43
2019-01-20T11:34:43.384Z,62.73
2019-01-20T11:39:48.483Z,64.23
2019-01-20T11:44:53.525Z,57.40
2019-01-20T11:50:33.720Z,51.93
2019-01-20T11:55:37.963Z,48.80
2019-01-20T12:00:42.830Z,53.50
2019-01-20T12:05:47.510Z,45.40
2019-01-20T12:10:51.825Z,42.90
2019-01-20T12:15:56.428Z,46.70
2019-01-20T12:21:00.727Z,52.13
2019-01-20T12:26:05.906Z,45.57
2019-01-20T12:31:10.952Z,45.57
2019-01-20T12:36:15.653Z,43.70
2019-01-20T12:41:19.912Z,42.17
2019-01-20T12:46:24.340Z,43.20
2019-01-20T12:51:29.049Z,42.00
2019-01-20T12:56:34.950Z,41.10
2019-01-20T13:01:39.277Z,39.70
2019-01-20T13:06:45.573Z,38.13
2019-01-20T13:11:49.929Z,43.63
2019-01-20T13:16:54.243Z,40.17
2019-01-20T13:21:59.358Z,39.00
2019-01-20T13:27:03.835Z,45.03
2019-01-20T13:32:09.066Z,45.77
2019-01-20T13:37:15.039Z,45.77
2019-01-20T13:42:20.593Z,41.20
2019-01-20T13:47:26.562Z,45.93
2019-01-20T13:52:31.957Z,41.13
2019-01-20T13:57:37.758Z,41.40
2019-01-20T14:02:43.204Z,43.07
2019-01-20T14:07:49.388Z,43.67
2019-01-20T14:12:54.710Z,42.73
2019-01-20T14:17:59.943Z,42.10
2019-01-20T14:23:05.783Z,42.60
2019-01-20T14:28:11.260Z,44.30
2019-01-20T14:33:16.991Z,38.00
2019-01-20T14:38:22.420Z,46.77
2019-01-20T14:43:28.305Z,44.47
2019-01-20T14:48:34.849Z,39.53
2019-01-20T14:53:40.019Z,38.63
2019-01-20T14:58:45.435Z,42.50
2019-01-20T15:03:50.523Z,40.83
2019-01-20T15:08:55.890Z,36.70
2019-01-20T15:14:00.883Z,43.00
2019-01-20T15:19:06.398Z,41.10
2019-01-20T15:24:11.556Z,39.50
2019-01-20T15:29:17.292Z,41.30
2019-01-20T15:34:22.770Z,40.80
2019-01-20T15:39:28.462Z,57.47
2019-01-20T15:44:33.989Z,54.30
2019-01-20T15:49:40.282Z,47.87
2019-01-20T15:54:45.519Z,47.40
2019-01-20T15:59:50.759Z,50.00
2019-01-20T16:04:55.311Z,41.70
2019-01-20T16:10:00.955Z,43.43
2019-01-20T16:15:12.581Z,49.63
2019-01-20T16:20:17.476Z,42.70
2019-01-20T16:25:24.873Z,45.13
2019-01-20T16:30:35.080Z,48.60
2019-01-20T16:35:39.800Z,46.20
2019-01-20T16:40:54.910Z,47.17
2019-01-20T16:46:01.180Z,51.87
2019-01-20T16:51:05.143Z,44.57
2019-01-20T16:56:08.743Z,48.17
2019-01-20T17:01:13.147Z,45.40
2019-01-20T17:06:16.500Z,49.80
2019-01-20T17:11:21.189Z,52.77
2019-01-20T17:16:27.179Z,58.60
2019-01-20T17:21:31.404Z,65.83
2019-01-20T17:26:35.756Z,47.30
2019-01-20T17:31:41.532Z,66.57
2019-01-20T17:36:46.713Z,49.30
2019-01-20T17:41:51.820Z,52.33
2019-01-20T17:46:56.711Z,49.50
2019-01-20T17:52:01.730Z,49.63
2019-01-20T17:57:08.168Z,45.90
2019-01-20T18:02:14.212Z,48.90
2019-01-20T18:07:19.308Z,44.67
2019-01-20T18:12:25.563Z,51.97
2019-01-20T18:17:30.713Z,48.40
2019-01-20T18:22:36.686Z,46.50
2019-01-20T18:27:41.800Z,46.43
2019-01-20T18:32:46.771Z,46.80
2019-01-20T18:37:51.969Z,77.20
2019-01-20T18:42:57.444Z,51.37
2019-01-20T18:48:03.995Z,52.50
2019-01-20T18:53:09.816Z,52.57
2019-01-20T18:58:15.271Z,55.33
2019-01-20T19:03:21.794Z,54.90
2019-01-20T19:08:27.282Z,53.60
2019-01-20T19:13:32.250Z,62.23
2019-01-20T19:18:37.316Z,52.03
2019-01-20T19:23:42.468Z,48.47
2019-01-20T19:28:47.734Z,53.97
2019-01-20T19:33:52.906Z,49.30
2019-01-20T19:38:58.541Z,65.33
2019-01-20T19:44:04.447Z,54.93
2019-01-20T19:49:09.770Z,61.67
2019-01-20T19:54:15.744Z,65.13
2019-01-20T19:59:21.596Z,64.63
2019-01-20T20:04:26.525Z,62.13
2019-01-20T20:09:31.705Z,60.80
2019-01-20T20:14:36.802Z,56.83
2019-01-20T20:19:42.535Z,52.70
2019-01-20T20:24:47.977Z,58.20
2019-01-20T20:29:53.745Z,70.93
2019-01-20T20:34:58.859Z,69.77
2019-01-20T20:40:05.652Z,85.40
2019-01-20T20:45:13.139Z,67.73
2019-01-20T20:50:18.005Z,69.20
2019-01-20T20:55:23.046Z,65.33
2019-01-20T21:00:42.105Z,67.83
2019-01-20T21:05:48.157Z,63.07
2019-01-20T21:10:52.649Z,67.17
2019-01-20T21:15:58.713Z,64.23
2019-01-20T21:21:03.253Z,65.83
2019-01-20T21:26:09.296Z,73.50
2019-01-20T21:31:13.867Z,68.33
2019-01-20T21:36:18.287Z,71.33
2019-01-20T21:41:23.382Z,68.00
2019-01-20T21:46:29.091Z,62.23
2019-01-20T21:51:33.721Z,69.03
2019-01-20T21:56:38.367Z,66.13
2019-01-20T22:01:42.991Z,59.40
2019-01-20T22:06:47.549Z,67.00
2019-01-20T22:11:51.815Z,67.73
2019-01-20T22:16:57.721Z,68.73
2019-01-20T22:22:03.715Z,59.00
2019-01-20T22:27:09.720Z,61.93
2019-01-20T22:32:14.255Z,59.93
2019-01-20T22:37:19.665Z,66.63
2019-01-20T22:42:24.864Z,61.60
2019-01-20T22:47:30.926Z,63.70
2019-01-20T22:52:36.036Z,65.47
2019-01-20T22:57:42.923Z,65.40
2019-01-20T23:02:47.574Z,57.37
2019-01-20T23:07:52.605Z,52.53
2019-01-20T23:12:57.513Z,65.77
2019-01-20T23:18:02.893Z,58.53
2019-01-20T23:23:08.345Z,59.67
2019-01-20T23:28:13.566Z,66.00
2019-01-20T23:33:18.931Z,59.43
2019-01-20T23:38:24.017Z,67.73
2019-01-20T23:43:28.181Z,62.53
2019-01-20T23:48:37.077Z,61.63
2019-01-20T23:53:42.274Z,59.30
2019-01-20T23:58:47.477Z,65.90
